Terminal Aerodrome Forecast
Issued by NWS

Home | Current Version | Previous Version | Text Only | Print | Product List | Glossary On
Versions: 1 2 3 4 5 6 7 8 9 10 11 12 13 14
864
FTUS42 TJSJ 271722
TAFJBQ
TAF
TJBQ 271722Z 2718/2818 07015KT P6SM VCTS SCT030CB SCT050
     FM272300 10008KT P6SM SCT025
     FM280600 14006KT P6SM FEW025
     FM281330 08012KT P6SM FEW025 SCT050
      AMD NOT SKED 2802/2811=

USA.gov is the U.S. government's official web portal to all federal, state and local government web resources and services.